createdAt,value
2022-10-13T00:00:18.748Z,12.30
2022-10-13T00:03:11.791Z,12.28
2022-10-13T00:05:49.257Z,12.27
2022-10-13T00:08:26.746Z,12.29
2022-10-13T00:11:00.837Z,12.23
2022-10-13T00:13:33.711Z,12.26
2022-10-13T00:16:06.594Z,12.22
2022-10-13T00:18:39.853Z,12.26
2022-10-13T00:21:15.663Z,12.27
2022-10-13T00:23:50.121Z,12.30
2022-10-13T00:26:27.226Z,12.35
2022-10-13T00:29:00.408Z,12.37
2022-10-13T00:31:34.726Z,12.49
2022-10-13T00:34:07.968Z,12.54
2022-10-13T00:36:40.962Z,12.51
2022-10-13T00:39:13.434Z,12.53
2022-10-13T00:41:46.115Z,12.56
2022-10-13T00:44:53.679Z,12.57
2022-10-13T00:47:26.465Z,12.57
2022-10-13T00:49:59.771Z,12.50
2022-10-13T00:52:34.879Z,12.56
2022-10-13T00:55:10.025Z,12.56
2022-10-13T00:57:45.992Z,12.61
2022-10-13T01:00:18.990Z,12.60
2022-10-13T01:02:53.623Z,12.62
2022-10-13T01:05:27.621Z,12.64
2022-10-13T01:08:02.898Z,12.62
2022-10-13T01:11:07.498Z,12.61
2022-10-13T01:14:10.162Z,12.56
2022-10-13T01:16:59.497Z,12.55
2022-10-13T01:20:06.200Z,12.54
2022-10-13T01:22:50.205Z,12.55
2022-10-13T01:25:31.898Z,12.59
2022-10-13T01:28:36.440Z,12.68
2022-10-13T01:31:36.733Z,12.69
2022-10-13T01:34:34.141Z,12.80
2022-10-13T01:37:28.362Z,12.81
2022-10-13T01:40:09.603Z,12.85
2022-10-13T01:43:09.068Z,12.87
2022-10-13T01:45:58.203Z,12.83
2022-10-13T01:48:31.819Z,12.79
2022-10-13T01:51:04.966Z,12.90
2022-10-13T01:53:38.786Z,12.92
2022-10-13T01:56:11.343Z,12.92
2022-10-13T01:58:49.818Z,12.91
2022-10-13T02:01:24.641Z,12.88
2022-10-13T02:03:59.411Z,12.91
2022-10-13T02:06:55.479Z,12.93
2022-10-13T02:09:45.590Z,12.95
2022-10-13T02:12:46.148Z,12.96
2022-10-13T02:15:26.163Z,12.97
2022-10-13T02:17:59.766Z,12.94
2022-10-13T02:20:33.748Z,12.98
2022-10-13T02:23:14.659Z,12.98
2022-10-13T02:25:50.534Z,12.98
2022-10-13T02:28:23.676Z,12.97
2022-10-13T02:30:56.943Z,12.94
2022-10-13T02:33:29.874Z,12.93
2022-10-13T02:36:02.575Z,12.91
2022-10-13T02:38:35.025Z,12.86
2022-10-13T02:41:07.497Z,12.92
2022-10-13T02:43:39.879Z,12.96
2022-10-13T02:46:12.397Z,12.94
2022-10-13T02:48:44.835Z,12.98
2022-10-13T02:51:17.567Z,13.06
2022-10-13T02:53:49.831Z,13.08
2022-10-13T02:56:22.227Z,13.07
2022-10-13T02:58:54.542Z,13.08
2022-10-13T03:01:27.040Z,13.08
2022-10-13T03:03:59.365Z,13.12
2022-10-13T03:06:32.111Z,13.08
2022-10-13T03:09:04.915Z,13.14
2022-10-13T03:11:37.350Z,13.15
2022-10-13T03:14:09.677Z,13.12
2022-10-13T03:16:42.563Z,13.13
2022-10-13T03:19:15.668Z,13.13
2022-10-13T03:21:48.444Z,13.23
2022-10-13T03:24:21.438Z,13.19
2022-10-13T03:26:54.827Z,13.21
2022-10-13T03:29:27.651Z,13.24
2022-10-13T03:32:00.232Z,13.19
2022-10-13T03:34:33.268Z,13.22
2022-10-13T03:37:06.706Z,13.17
2022-10-13T03:39:46.451Z,13.17
2022-10-13T03:42:19.397Z,13.21
2022-10-13T03:44:56.275Z,13.18
2022-10-13T03:47:29.568Z,13.26
2022-10-13T03:50:01.900Z,13.29
2022-10-13T03:52:34.914Z,13.27
2022-10-13T03:55:10.489Z,13.32
2022-10-13T03:57:44.364Z,13.27
2022-10-13T04:00:18.445Z,13.26
2022-10-13T04:02:52.417Z,13.27
2022-10-13T04:05:26.785Z,13.25
2022-10-13T04:07:59.814Z,13.20
2022-10-13T04:10:33.875Z,13.19
2022-10-13T04:13:06.530Z,13.23
2022-10-13T04:15:43.119Z,13.18
2022-10-13T04:18:15.606Z,13.20
2022-10-13T04:20:48.175Z,13.24
2022-10-13T04:23:20.738Z,13.27
2022-10-13T04:25:53.676Z,13.29
2022-10-13T04:28:27.019Z,13.31
2022-10-13T04:31:01.948Z,13.32
2022-10-13T04:33:36.806Z,13.35
2022-10-13T04:36:11.299Z,13.35
2022-10-13T04:38:44.718Z,13.28
2022-10-13T04:41:18.835Z,13.31
2022-10-13T04:43:52.462Z,13.33
2022-10-13T04:46:29.335Z,13.29
2022-10-13T04:49:02.067Z,13.33
2022-10-13T04:51:38.643Z,13.38
2022-10-13T04:54:11.555Z,13.31
2022-10-13T04:56:46.472Z,13.38
2022-10-13T04:59:19.179Z,13.50
2022-10-13T05:01:52.266Z,13.55
2022-10-13T05:04:25.169Z,13.57
2022-10-13T05:07:18.036Z,13.58
2022-10-13T05:09:53.956Z,13.62
2022-10-13T05:12:26.627Z,13.62
2022-10-13T05:14:59.513Z,13.65
2022-10-13T05:17:35.218Z,13.64
2022-10-13T05:20:17.469Z,13.66
2022-10-13T05:22:50.015Z,13.66
2022-10-13T05:25:22.822Z,13.71
2022-10-13T05:27:55.309Z,13.74
2022-10-13T05:30:27.870Z,13.81
2022-10-13T05:33:01.764Z,13.83
2022-10-13T05:35:34.282Z,13.90
2022-10-13T05:38:07.012Z,13.90
2022-10-13T05:40:39.776Z,13.82
2022-10-13T05:43:12.752Z,13.94
2022-10-13T05:45:45.706Z,13.88
2022-10-13T05:48:18.544Z,13.96
2022-10-13T05:50:51.528Z,14.00
2022-10-13T05:53:26.985Z,13.97
2022-10-13T05:56:06.705Z,13.99
2022-10-13T05:58:45.092Z,14.06
2022-10-13T06:01:21.780Z,14.08
2022-10-13T06:03:56.326Z,14.10
2022-10-13T06:06:31.499Z,14.08
2022-10-13T06:09:05.427Z,14.17
2022-10-13T06:11:38.362Z,14.16
2022-10-13T06:14:11.931Z,14.14
2022-10-13T06:16:45.222Z,14.14
2022-10-13T06:19:18.605Z,14.19
2022-10-13T06:21:51.683Z,14.17
2022-10-13T06:24:24.836Z,14.13
2022-10-13T06:26:58.120Z,14.14
2022-10-13T06:29:31.238Z,14.18
2022-10-13T06:32:05.102Z,14.18
2022-10-13T06:34:38.225Z,14.18
2022-10-13T06:37:11.151Z,14.23
2022-10-13T06:39:43.604Z,14.24
2022-10-13T06:42:17.096Z,14.21
2022-10-13T06:44:50.517Z,14.21
2022-10-13T06:47:23.585Z,14.23
2022-10-13T06:49:56.557Z,14.24
2022-10-13T06:52:29.701Z,14.25
2022-10-13T06:55:02.595Z,14.29
2022-10-13T06:57:35.775Z,14.32
2022-10-13T07:00:11.973Z,14.35
2022-10-13T07:02:45.491Z,14.37
2022-10-13T07:05:18.818Z,14.42
2022-10-13T07:07:57.785Z,14.53
2022-10-13T07:10:31.006Z,14.58
2022-10-13T07:13:05.239Z,14.59
2022-10-13T07:15:42.365Z,14.58
2022-10-13T07:18:15.500Z,14.64
2022-10-13T07:20:48.590Z,14.74
2022-10-13T07:23:22.115Z,14.83
2022-10-13T07:25:57.581Z,14.85
2022-10-13T07:28:31.459Z,14.85
2022-10-13T07:31:15.728Z,14.88
2022-10-13T07:33:52.228Z,14.94
2022-10-13T07:36:29.774Z,14.96
2022-10-13T07:39:04.246Z,15.01
2022-10-13T07:41:38.612Z,14.99
2022-10-13T07:44:12.130Z,15.02
2022-10-13T07:46:45.990Z,15.02
2022-10-13T07:49:20.850Z,14.99
2022-10-13T07:51:53.795Z,15.03
2022-10-13T07:54:27.608Z,15.10
2022-10-13T07:57:00.957Z,15.10
2022-10-13T07:59:37.427Z,15.11
2022-10-13T08:02:11.282Z,15.08
2022-10-13T08:04:44.135Z,15.13
2022-10-13T08:07:18.293Z,15.19
2022-10-13T08:09:51.825Z,15.27
2022-10-13T08:12:24.889Z,15.33
2022-10-13T08:15:00.499Z,15.38
2022-10-13T08:17:37.444Z,15.43
2022-10-13T08:20:11.583Z,15.42
2022-10-13T08:22:44.628Z,15.48
2022-10-13T08:25:18.265Z,15.49
2022-10-13T08:27:53.061Z,15.51
2022-10-13T08:30:28.227Z,15.44
2022-10-13T08:33:01.178Z,15.42
2022-10-13T08:35:35.127Z,15.38
2022-10-13T08:38:08.070Z,15.40
2022-10-13T08:40:41.371Z,15.39
2022-10-13T08:43:21.642Z,15.41
2022-10-13T08:46:00.598Z,15.41
2022-10-13T08:48:43.606Z,15.49
2022-10-13T08:51:18.029Z,15.58
2022-10-13T08:53:51.886Z,15.60
2022-10-13T08:56:29.918Z,15.60
2022-10-13T08:59:05.055Z,15.57
2022-10-13T09:01:39.464Z,15.55
2022-10-13T09:04:33.718Z,15.50
2022-10-13T09:07:14.163Z,15.52
2022-10-13T09:09:47.270Z,15.51
2022-10-13T09:12:24.896Z,15.57
2022-10-13T09:15:06.047Z,15.63
2022-10-13T09:17:40.322Z,15.72
2022-10-13T09:20:25.911Z,15.81
2022-10-13T09:23:19.528Z,15.88
2022-10-13T09:25:57.244Z,15.96
2022-10-13T09:28:32.811Z,15.92
2022-10-13T09:31:21.251Z,15.99
2022-10-13T09:34:02.544Z,16.08
2022-10-13T09:36:36.071Z,16.15
2022-10-13T09:39:16.734Z,16.20
2022-10-13T09:41:50.648Z,16.30
2022-10-13T09:44:32.866Z,16.33
2022-10-13T09:47:06.526Z,16.32
2022-10-13T09:49:40.662Z,16.34
2022-10-13T09:52:16.200Z,16.36
2022-10-13T09:54:55.480Z,16.44
2022-10-13T09:57:52.023Z,16.53
2022-10-13T10:00:27.491Z,16.55
2022-10-13T10:03:21.650Z,16.53
2022-10-13T10:06:05.813Z,16.51
2022-10-13T10:09:08.629Z,16.50
2022-10-13T10:11:49.660Z,16.46
2022-10-13T10:14:36.221Z,16.40
2022-10-13T10:17:41.735Z,16.36
2022-10-13T10:20:19.311Z,16.23
2022-10-13T10:22:57.720Z,16.18
2022-10-13T10:25:50.874Z,16.26
2022-10-13T10:28:59.636Z,16.27
2022-10-13T10:31:49.657Z,16.30
2022-10-13T10:34:49.337Z,16.24
2022-10-13T10:37:44.318Z,16.10
2022-10-13T10:40:37.104Z,16.09
2022-10-13T10:43:35.148Z,16.08
2022-10-13T10:46:16.579Z,16.08
2022-10-13T10:48:51.190Z,15.98
2022-10-13T10:51:28.801Z,15.94
2022-10-13T10:54:08.004Z,15.95
2022-10-13T10:56:55.253Z,16.02
2022-10-13T10:59:57.066Z,16.03
2022-10-13T11:03:03.842Z,15.86
2022-10-13T11:06:00.606Z,15.74
2022-10-13T11:08:49.531Z,15.62
2022-10-13T11:11:37.257Z,15.65
2022-10-13T11:14:30.131Z,15.54
2022-10-13T11:17:18.358Z,15.57
2022-10-13T11:19:51.959Z,15.63
2022-10-13T11:22:26.486Z,15.59
2022-10-13T11:25:25.513Z,15.54
2022-10-13T11:27:58.139Z,15.52
2022-10-13T11:30:48.112Z,15.64
2022-10-13T11:33:54.305Z,15.76
2022-10-13T11:36:52.821Z,15.75
2022-10-13T11:39:28.613Z,15.72
2022-10-13T11:42:24.239Z,15.71
2022-10-13T11:45:14.120Z,15.82
2022-10-13T11:48:02.368Z,15.79
2022-10-13T11:51:06.545Z,15.71
2022-10-13T11:53:51.137Z,15.51
2022-10-13T11:56:39.710Z,15.47
2022-10-13T11:59:32.102Z,15.53
2022-10-13T12:02:19.188Z,15.58
2022-10-13T12:05:05.603Z,15.66
2022-10-13T12:07:45.276Z,15.73
2022-10-13T12:10:31.666Z,15.85
2022-10-13T12:13:07.210Z,15.98
2022-10-13T12:15:45.567Z,16.09
2022-10-13T12:18:34.661Z,16.17
2022-10-13T12:21:15.776Z,16.19
2022-10-13T12:23:49.599Z,16.09
2022-10-13T12:26:27.064Z,16.06
2022-10-13T12:29:04.509Z,16.03
2022-10-13T12:31:48.415Z,15.94
2022-10-13T12:34:25.665Z,15.82
2022-10-13T12:37:04.283Z,15.76
2022-10-13T12:39:38.414Z,15.70
2022-10-13T12:42:13.631Z,15.61
2022-10-13T12:44:48.249Z,15.60
2022-10-13T12:47:41.953Z,15.52
2022-10-13T12:50:37.581Z,15.32
2022-10-13T12:53:24.801Z,15.20
2022-10-13T12:56:04.563Z,15.07
2022-10-13T12:58:45.119Z,15.03
2022-10-13T13:01:17.972Z,15.05
2022-10-13T13:03:59.820Z,15.08
2022-10-13T13:06:36.887Z,15.14
2022-10-13T13:09:28.086Z,15.15
2022-10-13T13:12:11.308Z,15.04
2022-10-13T13:14:51.605Z,14.97
2022-10-13T13:20:33.040Z,14.87
2022-10-13T13:23:06.450Z,14.79
2022-10-13T13:25:39.910Z,14.57
2022-10-13T13:28:20.138Z,14.65
2022-10-13T13:30:53.297Z,14.65
2022-10-13T13:33:26.510Z,14.76
2022-10-13T13:36:00.416Z,14.80
2022-10-13T13:38:34.059Z,14.83
2022-10-13T13:41:07.629Z,14.85
2022-10-13T13:43:41.246Z,14.88
2022-10-13T13:46:21.387Z,14.85
2022-10-13T13:48:55.042Z,14.89
2022-10-13T13:51:27.959Z,14.86
2022-10-13T13:54:00.647Z,14.85
2022-10-13T13:56:34.140Z,14.84
2022-10-13T13:59:07.473Z,14.79
2022-10-13T14:01:40.557Z,14.84
2022-10-13T14:04:13.453Z,14.84
2022-10-13T14:06:46.513Z,14.84
2022-10-13T14:09:19.545Z,14.81
2022-10-13T14:11:52.705Z,14.80
2022-10-13T14:14:25.976Z,14.76
2022-10-13T14:16:59.114Z,14.78
2022-10-13T14:19:33.140Z,14.77
2022-10-13T14:22:20.000Z,14.70
2022-10-13T14:24:56.324Z,14.69
2022-10-13T14:27:29.505Z,14.68
2022-10-13T14:30:06.305Z,14.64
2022-10-13T14:32:42.110Z,14.61
2022-10-13T14:35:15.241Z,14.56
2022-10-13T14:37:48.854Z,14.59
2022-10-13T14:40:21.840Z,14.58
2022-10-13T14:42:54.674Z,14.58
2022-10-13T14:45:27.669Z,14.60
2022-10-13T14:48:00.270Z,14.60
2022-10-13T14:50:34.935Z,14.59
2022-10-13T14:53:10.197Z,14.58
2022-10-13T14:55:43.394Z,14.56
2022-10-13T14:58:16.346Z,14.53
2022-10-13T15:00:49.288Z,14.50
2022-10-13T15:03:23.090Z,14.47
2022-10-13T15:05:56.572Z,14.42
2022-10-13T15:08:29.083Z,14.43
2022-10-13T15:11:08.612Z,14.38
2022-10-13T15:13:42.047Z,14.42
2022-10-13T15:16:29.222Z,14.41
2022-10-13T15:19:02.985Z,14.41
2022-10-13T15:21:36.144Z,14.37
2022-10-13T15:24:09.743Z,14.42
2022-10-13T15:26:42.745Z,14.38
2022-10-13T15:29:16.116Z,14.41
2022-10-13T15:31:50.103Z,14.40
2022-10-13T15:34:23.233Z,14.37
2022-10-13T15:36:56.655Z,14.35
2022-10-13T15:39:30.298Z,14.34
2022-10-13T15:42:03.564Z,14.32
2022-10-13T15:47:32.581Z,14.27
2022-10-13T15:50:06.398Z,14.27
2022-10-13T15:52:43.825Z,14.25
2022-10-13T15:55:19.840Z,14.32
2022-10-13T15:57:53.876Z,14.31
2022-10-13T16:00:27.450Z,14.32
2022-10-13T16:03:02.046Z,14.29
2022-10-13T16:05:36.699Z,14.34
2022-10-13T16:08:10.988Z,14.34
2022-10-13T16:10:45.627Z,14.32
2022-10-13T16:13:18.549Z,14.30
2022-10-13T16:16:04.418Z,14.24
2022-10-13T16:18:40.658Z,14.25
2022-10-13T16:21:18.471Z,14.19
2022-10-13T16:23:53.199Z,14.17
2022-10-13T16:26:26.313Z,14.14
2022-10-13T16:29:00.257Z,14.13
2022-10-13T16:31:34.348Z,14.12
2022-10-13T16:34:07.824Z,14.11
2022-10-13T16:36:41.085Z,14.11
2022-10-13T16:39:14.334Z,14.12
2022-10-13T16:41:48.458Z,14.13
2022-10-13T16:44:22.345Z,14.14
2022-10-13T16:46:57.555Z,14.11
2022-10-13T16:49:31.552Z,14.09
2022-10-13T16:52:05.637Z,14.11
2022-10-13T16:54:39.851Z,14.09
2022-10-13T16:57:14.102Z,14.07
2022-10-13T16:59:47.643Z,14.02
2022-10-13T17:02:21.872Z,14.05
2022-10-13T17:04:56.202Z,14.04
2022-10-13T17:07:29.880Z,14.05
2022-10-13T17:10:04.511Z,14.07
2022-10-13T17:12:38.674Z,14.11
2022-10-13T17:15:12.685Z,14.14
2022-10-13T17:17:46.635Z,14.11
2022-10-13T17:20:20.120Z,14.13
2022-10-13T17:22:55.114Z,14.07
2022-10-13T17:25:28.655Z,14.06
2022-10-13T17:28:01.728Z,14.08
2022-10-13T17:30:35.239Z,14.07
2022-10-13T17:33:09.352Z,14.04
2022-10-13T17:35:43.408Z,14.05
2022-10-13T17:38:17.600Z,14.06
2022-10-13T17:40:53.937Z,14.08
2022-10-13T17:43:30.046Z,14.09
2022-10-13T17:46:37.871Z,14.08
2022-10-13T17:49:15.320Z,14.07
2022-10-13T17:51:52.192Z,14.06
2022-10-13T17:54:26.197Z,14.04
2022-10-13T17:57:00.270Z,14.01
2022-10-13T17:59:33.791Z,13.99
2022-10-13T18:02:07.203Z,13.99
2022-10-13T18:04:41.739Z,14.00
2022-10-13T18:07:15.671Z,14.03
2022-10-13T18:09:53.162Z,14.04
2022-10-13T18:12:26.102Z,14.00
2022-10-13T18:14:59.198Z,14.04
2022-10-13T18:17:32.455Z,14.00
2022-10-13T18:20:05.614Z,13.96
2022-10-13T18:22:39.555Z,13.96
2022-10-13T18:25:13.766Z,13.95
2022-10-13T18:27:47.756Z,13.99
2022-10-13T18:30:22.526Z,13.99
2022-10-13T18:32:56.215Z,13.92
2022-10-13T18:35:32.401Z,13.96
2022-10-13T18:38:06.740Z,14.01
2022-10-13T18:40:44.941Z,14.02
2022-10-13T18:43:18.173Z,14.02
2022-10-13T18:45:51.540Z,14.02
2022-10-13T18:48:25.599Z,14.01
2022-10-13T18:50:59.274Z,13.99
2022-10-13T18:53:33.270Z,13.91
2022-10-13T18:56:10.548Z,13.93
2022-10-13T18:58:43.676Z,13.88
2022-10-13T19:01:19.201Z,13.89
2022-10-13T19:03:53.449Z,13.91
2022-10-13T19:06:32.733Z,13.95
2022-10-13T19:09:10.679Z,13.96
2022-10-13T19:11:43.965Z,13.96
2022-10-13T19:14:17.761Z,13.95
2022-10-13T19:16:50.231Z,13.95
2022-10-13T19:19:23.138Z,13.83
2022-10-13T19:21:57.819Z,13.82
2022-10-13T19:24:30.448Z,13.78
2022-10-13T19:27:04.555Z,13.72
2022-10-13T19:29:38.766Z,13.65
2022-10-13T19:32:12.718Z,13.68
2022-10-13T19:34:47.301Z,13.68
2022-10-13T19:37:21.335Z,13.72
2022-10-13T19:39:55.130Z,13.74
2022-10-13T19:42:29.537Z,13.75
2022-10-13T19:45:05.818Z,13.75
2022-10-13T19:47:40.115Z,13.73
2022-10-13T19:50:14.058Z,13.66
2022-10-13T19:52:48.624Z,13.69
2022-10-13T19:55:22.762Z,13.65
2022-10-13T19:57:57.131Z,13.64
2022-10-13T20:00:31.029Z,13.65
2022-10-13T20:03:06.644Z,13.67
2022-10-13T20:05:42.723Z,13.65
2022-10-13T20:08:17.155Z,13.69
2022-10-13T20:10:51.037Z,13.69
2022-10-13T20:13:25.106Z,13.64
2022-10-13T20:15:59.932Z,13.64
2022-10-13T20:18:34.066Z,13.67
2022-10-13T20:21:12.568Z,13.65
2022-10-13T20:23:45.893Z,13.64
2022-10-13T20:26:19.793Z,13.64
2022-10-13T20:28:55.215Z,13.61
2022-10-13T20:31:28.497Z,13.66
2022-10-13T20:34:01.514Z,13.67
2022-10-13T20:36:39.063Z,13.68
2022-10-13T20:39:12.310Z,13.71
2022-10-13T20:41:46.536Z,13.68
2022-10-13T20:44:20.821Z,13.69
2022-10-13T20:46:54.727Z,13.67
2022-10-13T20:49:29.641Z,13.63
2022-10-13T20:52:03.846Z,13.56
2022-10-13T20:54:36.671Z,13.55
2022-10-13T20:57:09.337Z,13.60
2022-10-13T20:59:42.054Z,13.56
2022-10-13T21:02:17.963Z,13.59
2022-10-13T21:04:52.957Z,13.61
2022-10-13T21:07:25.793Z,13.63
2022-10-13T21:09:58.589Z,13.63
2022-10-13T21:12:31.705Z,13.62
2022-10-13T21:15:04.752Z,13.64
2022-10-13T21:17:40.533Z,13.62
2022-10-13T21:20:16.781Z,13.56
2022-10-13T21:22:49.643Z,13.54
2022-10-13T21:25:22.822Z,13.47
2022-10-13T21:27:57.554Z,13.51
2022-10-13T21:30:31.255Z,13.50
2022-10-13T21:33:04.130Z,13.52
2022-10-13T21:35:38.436Z,13.53
2022-10-13T21:38:11.263Z,13.54
2022-10-13T21:40:49.367Z,13.49
2022-10-13T21:43:27.187Z,13.59
2022-10-13T21:46:10.261Z,13.58
2022-10-13T21:48:50.949Z,13.57
2022-10-13T21:51:25.778Z,13.61
2022-10-13T21:54:01.029Z,13.54
2022-10-13T21:56:36.478Z,13.54
2022-10-13T21:59:09.705Z,13.59
2022-10-13T22:01:43.121Z,13.56
2022-10-13T22:04:18.184Z,13.58
2022-10-13T22:06:51.114Z,13.63
2022-10-13T22:09:28.255Z,13.68
2022-10-13T22:12:05.864Z,13.68
2022-10-13T22:14:39.729Z,13.57
2022-10-13T22:17:13.557Z,13.49
2022-10-13T22:19:46.923Z,13.50
2022-10-13T22:22:20.732Z,13.39
2022-10-13T22:24:54.635Z,13.33
2022-10-13T22:27:28.837Z,13.34
2022-10-13T22:30:03.257Z,13.32
2022-10-13T22:32:37.435Z,13.33
2022-10-13T22:35:11.276Z,13.36
2022-10-13T22:37:45.654Z,13.40
2022-10-13T22:40:19.617Z,13.40
2022-10-13T22:42:54.054Z,13.45
2022-10-13T22:45:28.123Z,13.50
2022-10-13T22:48:02.693Z,13.49
2022-10-13T22:50:38.204Z,13.46
2022-10-13T22:53:12.582Z,13.40
2022-10-13T22:55:46.261Z,13.40
2022-10-13T22:58:20.461Z,13.39
2022-10-13T23:00:54.410Z,13.37
2022-10-13T23:03:28.757Z,13.35
2022-10-13T23:06:04.774Z,13.33
2022-10-13T23:08:38.032Z,13.44
2022-10-13T23:11:12.302Z,13.47
2022-10-13T23:13:45.630Z,13.50
2022-10-13T23:16:21.553Z,13.51
2022-10-13T23:18:54.720Z,13.46
2022-10-13T23:21:32.244Z,13.41
2022-10-13T23:24:07.729Z,13.37
2022-10-13T23:26:40.702Z,13.46
2022-10-13T23:29:13.656Z,13.46
2022-10-13T23:31:46.747Z,13.45
2022-10-13T23:34:19.559Z,13.44
2022-10-13T23:36:52.783Z,13.43
2022-10-13T23:39:25.586Z,13.42
2022-10-13T23:41:58.233Z,13.39
2022-10-13T23:44:31.047Z,13.41
2022-10-13T23:47:04.076Z,13.40
2022-10-13T23:49:36.863Z,13.34
2022-10-13T23:52:11.110Z,13.43
2022-10-13T23:54:44.324Z,13.47
2022-10-13T23:57:17.502Z,13.48
2022-10-13T23:59:50.188Z,13.47
